Waterford, WI (53185)

10:48 AM CDT on March 31, 2015 (GMT -0500)
Tichigan Lake | | Change Station
CLOSE
Current Station
Personal Weather Station
Location: Waterford, WI
Elevation: 787 ft
Nearby Weather Stations

Elev 787 ft 42.81 °N, 88.22 °W | Updated 14 seconds ago

Overcast
Overcast
47.1 °F
Feels Like 47 °F
N
2.5
Wind Variable Wind from NNW
Gusts 7.6 mph

Today
High -- | Low -- °F
--% Chance of Precip.
Yesterday
High -- | Low -- °F
Precip. -- in
6:37 AM 7:17 PM
Waxing Gibbous, 87% visible
Pressure 29.92 in
Visibility 10.0 miles
Clouds Scattered Clouds 1800 ft
Scattered Clouds 3100 ft
Windchill 47 °F
Dew Point 28 °F
Humidity 47%
Rainfall 0.00 in
Snow Depth Not available.
UV 4 out of 12
Pollen 6.70 out of 12
Air Quality Not available.
Flu Activity Not available.
METAR KBUU 311535Z AUTO 35008KT 10SM SCT018 SCT031 07/02 A2992 RMK AO2 T00650017

More Conditions Fewer Conditions

Pressure 29.92 in
Visibility 10.0 miles
Clouds Scattered Clouds 1800 ft
Scattered Clouds 3100 ft
Windchill 47 °F
Dew Point 28 °F
Humidity 47%
Rainfall 0.00 in
Snow Depth Not available.
UV 4 out of 12
Pollen 6.70 out of 12
Air Quality Not available.
Flu Activity Not available.
METAR KBUU 311535Z AUTO 35008KT 10SM SCT018 SCT031 07/02 A2992 RMK AO2 T00650017

More Conditions Fewer Conditions

10-Day Weather Forecast

Almanac

Astronomy

Mar. 31, 2015 Rise Set
Actual Time
Civil Twilight
Nautical Twilight
Astronomical Twilight
Moon
Length of Visible Light
Length of Day
Tomorrow will be .
, % of the Moon is Illuminated

Today's Extremes

State Highs State Lows

Community

WunderPhotos

Upload Photos

1,809,781 photos uploaded!

WunderBlogs® & News

Nearby

Air Quality

  Air Quality AQ Index Pollutant
Not available.

Snow Depth

Station Depth Elevation

Earthquake Activity

City Distance Mag. Time & Date
Minimum magnitude displayed is 2.5.

Coastal Water Temperatures

Place Temperature

Stations

Nearby Weather Stations

Station Location Temp. Windchill Dew Point Humidity Wind Precip. Elev Updated Type